• Join FlightAware (Why Join?)
  • Login
  • US Flag 
06:15AM EDT


 

Airport Tracker/Info


-or-


 

Live Flight TrackerFlight Track Log ✈ AWE2740 ✈ 03-Jan-2014 ✈ KTUS - KPHX

Flight Track Log - Related Links

Times and Time Zones

All times are in EST time to prevent confusion due to time zone crossing. See the AWE2740 flight status page for this flight to view local times or setup timezone preferences in your user account.

Time Position Orientation Groundspeed Altitude Reporting Facility
EST Latitude Longitude Course Direction KTS MPH feet Rate Location/Type
06:06PM 32.1036 -110.9247 14° North 173 199 3,300  Level Albuquerque Center
06:07PM 32.0842 -110.9022 136° Southeast 184 212 4,400 2,760 Climbing Albuquerque Center
06:08PM 32.0931 -110.8494 79° East 233 268 7,200 2,460 Climbing Albuquerque Center
06:08PM 32.0972 -110.8469 27° Northeast 226 260 7,200 2,820 Level Albuquerque Center
06:09PM 32.1828 -110.8728 346° North 276 318 10,800 2,880 Climbing Albuquerque Center
06:10PM 32.2129 -111.1336 19° North  Level FlightAware Approximate
06:10PM 32.2639 -110.9106 339° North 304 350 13,200  Level Albuquerque Center
06:11PM 32.2997 -111.0974 19° North  Level FlightAware Approximate
06:11PM 32.3544 -110.9511 339° North 338 389 15,800  Level Albuquerque Center
06:12PM 32.3880 -111.0670 14° North  Level FlightAware Approximate
06:12PM 32.4461 -110.9947 338° Northwest 352 405 16,000  Level Albuquerque Center
06:13PM 32.5386 -111.0339 340° North 353 406 16,000  Level Albuquerque Center
06:14PM 32.6306 -111.0594 347° North 344 396 16,000  Level Albuquerque Center
06:15PM 32.7339 -111.0911 346° North 324 373 16,000  Level Albuquerque Center
06:16PM 32.8222 -111.1150 347° North 325 374 16,000  Level Albuquerque Center
06:17PM 32.8919 -111.1700 326° Northwest 311 358 16,000 -480 Level Albuquerque Center
06:18PM 32.9358 -111.2583 301° West 310 357 15,100 -960 Descending Albuquerque Center
06:19PM 32.9772 -111.3464 299° West 306 352 14,100 -1,020 Descending Albuquerque Center
06:20PM 33.0181 -111.4317 300° West 298 343 13,100 -1,080 Descending Albuquerque Center
06:21PM 33.0689 -111.5325 301° West 296 341 11,900 -840 Descending Albuquerque Center
06:22PM 33.1103 -111.6147 301° West 290 334 11,400 -540 Descending Albuquerque Center
06:23PM 33.1514 -111.6961 301° West 287 330 10,800 -660 Descending Albuquerque Center
06:24PM 33.1925 -111.7769 301° West 285 328 10,100 -600 Descending Albuquerque Center
06:25PM 33.2317 -111.8542 301° West 274 315 9,600 -480 Descending Albuquerque Center
06:27PM 33.2644 -111.9192 301° West 235 270 9,200 -600 Descending Albuquerque Center
06:28PM 33.2975 -111.9831 302° West 227 261 8,400 -1,080 Descending Albuquerque Center
06:29PM 33.3328 -112.0536 301° West 209 241 7,000 -1,200 Descending Albuquerque Center
06:30PM 33.3431 -112.1214 280° West 208 239 6,000 -1,020 Descending Albuquerque Center
06:31PM 33.3436 -112.1892 271° West 205 236 5,000 -900 Descending Albuquerque Center
06:32PM 33.3956 -112.2017 349° North 204 235 4,200 -960 Descending Albuquerque Center
06:33PM 33.4267 -112.1522 53° Northeast 195 224 3,100 -900 Descending Albuquerque Center
06:34PM 33.4289 -112.1003 87° East 157 181 2,400 -780 Descending Albuquerque Center
06:35PM 33.4292 -112.0528 90° East 144 166 1,600 -660 Descending Albuquerque Center
06:36PM 33.4297 -112.0022 89° East 140 161 1,100 -540 Descending Albuquerque Center